< < Back
Terminal Aerodrome Forecast


Current Version              Previous Versions:   1  2  3  4  5  6  7  8  9  

Terminal Aerodrome Forecast

718
FTUS42 KTAE 211700
TAFDHN
TAF
KDHN 211720Z 2118/2218 VRB04KT P6SM SKC=



Latest METAR

288
SAUS70 KWBC 221400 RRE
MTRDHN
METAR KDHN 221353Z 29006KT 10SM FEW065 26/21 A3008 RMK AO2 SLP180
T02560206


USA.gov is the U.S. government's official web portal to all federal, state and local government web resources and services.